createdAt,value
2023-05-09T00:01:22.931Z,101009.09
2023-05-09T00:03:52.194Z,101012.06
2023-05-09T00:06:19.943Z,101000.44
2023-05-09T00:08:47.055Z,101002.34
2023-05-09T00:11:13.861Z,101001.00
2023-05-09T00:13:41.957Z,101002.63
2023-05-09T00:16:09.318Z,101005.34
2023-05-09T00:18:37.589Z,100999.94
2023-05-09T00:21:05.241Z,100992.09
2023-05-09T00:23:32.039Z,100992.38
2023-05-09T00:25:59.532Z,100986.78
2023-05-09T00:28:26.782Z,100979.53
2023-05-09T00:30:53.843Z,100981.25
2023-05-09T00:33:20.833Z,100984.56
2023-05-09T00:35:47.831Z,100984.03
2023-05-09T00:38:15.178Z,100981.91
2023-05-09T00:40:42.004Z,100980.31
2023-05-09T00:43:08.871Z,100976.28
2023-05-09T00:45:35.784Z,100972.81
2023-05-09T00:48:03.316Z,100972.81
2023-05-09T00:50:31.141Z,100965.03
2023-05-09T00:52:58.744Z,100966.66
2023-05-09T00:55:27.331Z,100960.50
2023-05-09T00:57:54.074Z,100956.75
2023-05-09T01:00:21.550Z,100958.63
2023-05-09T01:02:53.469Z,100965.38
2023-05-09T01:05:21.617Z,100964.31
2023-05-09T01:08:00.627Z,100965.16
2023-05-09T01:10:42.429Z,100954.09
2023-05-09T01:13:15.081Z,100950.28
2023-05-09T01:16:06.248Z,100946.53
2023-05-09T01:18:57.008Z,100950.88
2023-05-09T01:21:30.553Z,100955.78
2023-05-09T01:24:00.815Z,100941.47
2023-05-09T01:26:52.341Z,100939.84
2023-05-09T01:29:36.640Z,100935.53
2023-05-09T01:32:10.010Z,100926.13
2023-05-09T01:34:38.878Z,100930.41
2023-05-09T01:37:07.474Z,100924.22
2023-05-09T01:39:38.586Z,100927.75
2023-05-09T01:42:08.830Z,100925.06
2023-05-09T01:44:42.589Z,100930.22
2023-05-09T01:47:10.916Z,100939.13
2023-05-09T01:49:40.215Z,100931.84
2023-05-09T01:52:16.918Z,100926.44
2023-05-09T01:54:45.951Z,100924.53
2023-05-09T01:57:13.699Z,100924.81
2023-05-09T01:59:43.137Z,100929.94
2023-05-09T02:02:10.462Z,100932.13
2023-05-09T02:04:39.383Z,100913.75
2023-05-09T02:07:07.595Z,100923.47
2023-05-09T02:09:34.853Z,100916.22
2023-05-09T02:12:02.218Z,100926.47
2023-05-09T02:14:29.887Z,100918.69
2023-05-09T02:16:56.867Z,100919.22
2023-05-09T02:19:24.310Z,100910.84
2023-05-09T02:21:51.212Z,100923.00
2023-05-09T02:24:18.135Z,100922.47
2023-05-09T02:26:45.573Z,100920.84
2023-05-09T02:29:12.921Z,100924.63
2023-05-09T02:31:41.546Z,100923.56
2023-05-09T02:34:09.800Z,100930.81
2023-05-09T02:36:37.946Z,100921.38
2023-05-09T02:39:05.030Z,100926.25
2023-05-09T02:41:31.985Z,100928.94
2023-05-09T02:43:58.866Z,100922.44
2023-05-09T02:46:26.187Z,100920.28
2023-05-09T02:48:53.583Z,100911.66
2023-05-09T02:51:20.444Z,100910.31
2023-05-09T02:53:47.267Z,100910.56
2023-05-09T02:56:14.315Z,100902.75
2023-05-09T02:58:41.256Z,100898.72
2023-05-09T03:01:09.860Z,100897.66
2023-05-09T03:03:38.345Z,100904.13
2023-05-09T03:06:06.481Z,100907.88
2023-05-09T03:08:33.454Z,100903.25
2023-05-09T03:11:00.856Z,100896.47
2023-05-09T03:13:28.289Z,100889.69
2023-05-09T03:15:57.122Z,100886.69
2023-05-09T03:18:24.229Z,100884.25
2023-05-09T03:20:51.562Z,100888.53
2023-05-09T03:23:19.229Z,100889.28
2023-05-09T03:25:46.041Z,100887.66
2023-05-09T03:28:12.804Z,100886.53
2023-05-09T03:30:39.986Z,100878.97
2023-05-09T03:33:10.633Z,100871.38
2023-05-09T03:35:37.400Z,100871.38
2023-05-09T03:38:05.794Z,100866.56
2023-05-09T03:40:32.804Z,100865.47
2023-05-09T03:43:06.572Z,100865.47
2023-05-09T03:45:33.604Z,100868.19
2023-05-09T03:48:01.181Z,100867.06
2023-05-09T03:50:29.395Z,100866.00
2023-05-09T03:52:58.101Z,100864.91
2023-05-09T03:55:26.304Z,100867.59
2023-05-09T03:57:54.044Z,100869.72
2023-05-09T04:00:22.757Z,100865.63
2023-05-09T04:03:00.629Z,100869.69
2023-05-09T04:05:36.299Z,100873.72
2023-05-09T04:08:05.264Z,100873.97
2023-05-09T04:10:32.850Z,100877.19
2023-05-09T04:12:59.896Z,100869.59
2023-05-09T04:15:26.785Z,100870.94
2023-05-09T04:17:54.302Z,100869.06
2023-05-09T04:20:21.183Z,100866.88
2023-05-09T04:22:48.127Z,100868.47
2023-05-09T04:25:17.120Z,100875.50
2023-05-09T04:27:45.581Z,100884.13
2023-05-09T04:30:12.947Z,100882.50
2023-05-09T04:32:40.636Z,100877.34
2023-05-09T04:35:09.130Z,100885.44
2023-05-09T04:37:40.282Z,100878.66
2023-05-09T04:40:09.411Z,100872.94
2023-05-09T04:42:46.886Z,100872.66
2023-05-09T04:45:16.493Z,100871.53
2023-05-09T04:47:44.343Z,100863.41
2023-05-09T04:50:11.765Z,100862.81
2023-05-09T04:52:38.736Z,100861.97
2023-05-09T04:55:06.528Z,100861.69
2023-05-09T04:57:41.812Z,100857.94
2023-05-09T05:00:11.731Z,100856.59
2023-05-09T05:02:39.572Z,100856.34
2023-05-09T05:05:12.215Z,100850.94
2023-05-09T05:07:42.537Z,100846.53
2023-05-09T05:10:11.575Z,100841.66
2023-05-09T05:12:41.126Z,100842.69
2023-05-09T05:15:11.574Z,100844.25
2023-05-09T05:17:39.629Z,100837.19
2023-05-09T05:20:10.560Z,100839.84
2023-05-09T05:22:41.672Z,100843.34
2023-05-09T05:25:08.851Z,100837.88
2023-05-09T05:27:36.960Z,100835.47
2023-05-09T05:30:04.749Z,100826.50
2023-05-09T05:32:31.879Z,100825.63
2023-05-09T05:35:02.617Z,100823.28
2023-05-09T05:37:29.801Z,100826.88
2023-05-09T05:39:56.893Z,100827.66
2023-05-09T05:42:25.191Z,100826.47
2023-05-09T05:44:51.996Z,100829.34
2023-05-09T05:47:18.856Z,100831.41
2023-05-09T05:49:46.293Z,100830.75
2023-05-09T05:52:13.261Z,100837.09
2023-05-09T05:54:40.702Z,100820.47
2023-05-09T05:57:08.351Z,100824.72
2023-05-09T05:59:36.538Z,100826.41
2023-05-09T06:02:03.512Z,100826.88
2023-05-09T06:04:31.126Z,100821.66
2023-05-09T06:06:59.211Z,100830.50
2023-05-09T06:09:27.347Z,100825.00
2023-05-09T06:11:54.427Z,100818.44
2023-05-09T06:14:21.328Z,100814.28
2023-05-09T06:16:48.690Z,100820.34
2023-05-09T06:19:15.761Z,100815.88
2023-05-09T06:21:42.987Z,100815.94
2023-05-09T06:24:14.420Z,100811.03
2023-05-09T06:26:51.250Z,100811.25
2023-05-09T06:29:18.095Z,100808.72
2023-05-09T06:31:45.575Z,100810.16
2023-05-09T06:34:12.555Z,100809.94
2023-05-09T06:36:39.469Z,100808.47
2023-05-09T06:39:06.387Z,100801.66
2023-05-09T06:41:33.257Z,100804.56
2023-05-09T06:44:02.708Z,100804.19
2023-05-09T06:46:29.803Z,100799.66
2023-05-09T06:48:56.937Z,100790.81
2023-05-09T06:51:25.060Z,100790.41
2023-05-09T06:53:55.648Z,100787.34
2023-05-09T06:56:23.303Z,100785.75
2023-05-09T06:58:50.522Z,100784.75
2023-05-09T07:01:17.886Z,100786.06
2023-05-09T07:03:47.918Z,100777.84
2023-05-09T07:06:14.836Z,100780.75
2023-05-09T07:08:41.763Z,100780.16
2023-05-09T07:11:08.951Z,100778.97
2023-05-09T07:13:36.707Z,100779.47
2023-05-09T07:16:04.794Z,100777.25
2023-05-09T07:18:31.848Z,100773.13
2023-05-09T07:21:00.414Z,100771.66
2023-05-09T07:23:27.453Z,100757.25
2023-05-09T07:25:58.891Z,100754.06
2023-05-09T07:28:26.134Z,100754.03
2023-05-09T07:30:55.888Z,100751.06
2023-05-09T07:33:23.993Z,100753.03
2023-05-09T07:35:53.301Z,100739.47
2023-05-09T07:38:20.356Z,100741.78
2023-05-09T07:40:47.527Z,100734.47
2023-05-09T07:43:18.170Z,100732.63
2023-05-09T07:45:47.438Z,100722.38
2023-05-09T07:48:18.401Z,100719.34
2023-05-09T07:50:45.456Z,100717.41
2023-05-09T07:53:12.261Z,100711.69
2023-05-09T07:55:39.026Z,100721.97
2023-05-09T07:58:06.080Z,100711.84
2023-05-09T08:00:36.188Z,100715.16
2023-05-09T08:03:03.510Z,100722.25
2023-05-09T08:05:30.903Z,100708.19
2023-05-09T08:07:57.834Z,100702.69
2023-05-09T08:10:25.052Z,100693.03
2023-05-09T08:12:52.464Z,100690.28
2023-05-09T08:15:19.315Z,100683.31
2023-05-09T08:17:46.617Z,100679.06
2023-05-09T08:20:13.916Z,100666.28
2023-05-09T08:22:44.782Z,100670.72
2023-05-09T08:25:25.261Z,100667.03
2023-05-09T08:27:53.200Z,100668.13
2023-05-09T08:30:20.934Z,100674.56
2023-05-09T08:32:47.796Z,100668.00
2023-05-09T08:35:14.913Z,100663.00
2023-05-09T08:37:42.238Z,100666.84
2023-05-09T08:40:10.224Z,100666.19
2023-05-09T08:42:40.779Z,100664.63
2023-05-09T08:45:10.855Z,100662.69
2023-05-09T08:47:39.312Z,100659.84
2023-05-09T08:50:08.093Z,100658.19
2023-05-09T08:52:38.685Z,100660.06
2023-05-09T08:55:09.701Z,100656.00
2023-05-09T08:57:37.256Z,100654.66
2023-05-09T09:00:06.576Z,100641.34
2023-05-09T09:02:34.243Z,100642.34
2023-05-09T09:05:02.972Z,100637.22
2023-05-09T09:07:31.334Z,100638.47
2023-05-09T09:09:59.652Z,100645.56
2023-05-09T09:12:26.773Z,100647.38
2023-05-09T09:14:56.181Z,100646.34
2023-05-09T09:17:28.142Z,100631.78
2023-05-09T09:19:59.856Z,100629.22
2023-05-09T09:22:33.835Z,100622.94
2023-05-09T09:25:02.049Z,100625.13
2023-05-09T09:27:28.975Z,100620.59
2023-05-09T09:29:56.092Z,100615.81
2023-05-09T09:32:34.188Z,100612.41
2023-05-09T09:35:07.195Z,100610.03
2023-05-09T09:37:35.785Z,100613.41
2023-05-09T09:40:03.804Z,100609.38
2023-05-09T09:42:44.919Z,100605.84
2023-05-09T09:45:13.842Z,100597.63
2023-05-09T09:47:43.074Z,100600.31
2023-05-09T09:50:15.535Z,100592.41
2023-05-09T09:52:54.140Z,100587.59
2023-05-09T09:55:22.475Z,100584.38
2023-05-09T09:57:49.383Z,100581.34
2023-05-09T10:00:18.364Z,100589.00
2023-05-09T10:02:56.130Z,100591.06
2023-05-09T10:05:28.517Z,100570.50
2023-05-09T10:08:00.086Z,100583.53
2023-05-09T10:10:31.509Z,100566.97
2023-05-09T10:13:09.572Z,100565.63
2023-05-09T10:15:49.039Z,100550.81
2023-05-09T10:18:19.990Z,100539.44
2023-05-09T10:20:47.286Z,100522.94
2023-05-09T10:23:16.670Z,100524.56
2023-05-09T10:26:03.209Z,100512.97
2023-05-09T10:28:34.332Z,100505.16
2023-05-09T10:31:13.275Z,100491.28
2023-05-09T10:33:51.063Z,100491.03
2023-05-09T10:36:23.900Z,100484.84
2023-05-09T10:38:54.196Z,100487.88
2023-05-09T10:41:25.644Z,100479.44
2023-05-09T10:43:53.092Z,100473.00
2023-05-09T10:46:24.048Z,100476.13
2023-05-09T10:48:51.290Z,100466.47
2023-05-09T10:51:18.602Z,100466.44
2023-05-09T10:53:48.053Z,100461.47
2023-05-09T10:56:35.776Z,100450.75
2023-05-09T10:59:02.979Z,100448.94
2023-05-09T11:01:39.026Z,100439.25
2023-05-09T11:04:14.605Z,100442.63
2023-05-09T11:06:45.345Z,100430.44
2023-05-09T11:09:34.726Z,100424.72
2023-05-09T11:12:10.135Z,100425.97
2023-05-09T11:14:45.578Z,100414.13
2023-05-09T11:17:36.337Z,100412.84
2023-05-09T11:20:05.896Z,100403.31
2023-05-09T11:22:41.407Z,100410.84
2023-05-09T11:25:09.312Z,100407.00
2023-05-09T11:27:41.118Z,100406.75
2023-05-09T11:30:09.018Z,100400.38
2023-05-09T11:32:58.913Z,100381.28
2023-05-09T11:35:28.942Z,100387.78
2023-05-09T11:38:05.671Z,100387.09
2023-05-09T11:40:34.019Z,100384.88
2023-05-09T11:43:01.765Z,100382.84
2023-05-09T11:45:31.272Z,100384.00
2023-05-09T11:47:58.796Z,100380.09
2023-05-09T11:50:25.821Z,100373.19
2023-05-09T11:52:53.574Z,100366.06
2023-05-09T11:55:30.242Z,100368.75
2023-05-09T11:57:57.418Z,100366.31
2023-05-09T12:00:26.271Z,100367.28
2023-05-09T12:02:53.722Z,100365.16
2023-05-09T12:05:22.855Z,100363.69
2023-05-09T12:07:50.332Z,100351.72
2023-05-09T12:10:20.457Z,100351.72
2023-05-09T12:12:49.839Z,100355.69
2023-05-09T12:15:17.665Z,100350.47
2023-05-09T12:17:47.122Z,100345.44
2023-05-09T12:20:15.144Z,100339.28
2023-05-09T12:22:53.488Z,100332.44
2023-05-09T12:25:20.256Z,100320.78
2023-05-09T12:27:47.047Z,100315.56
2023-05-09T12:30:16.154Z,100298.72
2023-05-09T12:32:43.875Z,100300.00
2023-05-09T12:35:11.310Z,100295.25
2023-05-09T12:37:38.597Z,100295.34
2023-05-09T12:40:13.071Z,100295.44
2023-05-09T12:42:44.096Z,100278.84
2023-05-09T12:45:11.581Z,100271.88
2023-05-09T12:47:39.156Z,100264.53
2023-05-09T12:50:07.171Z,100271.28
2023-05-09T12:52:41.653Z,100260.72
2023-05-09T12:55:15.306Z,100264.63
2023-05-09T12:57:42.954Z,100259.06
2023-05-09T13:00:12.106Z,100256.97
2023-05-09T13:02:42.077Z,100246.81
2023-05-09T13:05:10.822Z,100252.78
2023-05-09T13:07:52.794Z,100251.03
2023-05-09T13:10:24.253Z,100242.38
2023-05-09T13:12:52.064Z,100241.56
2023-05-09T13:15:21.054Z,100247.19
2023-05-09T13:17:52.082Z,100235.91
2023-05-09T13:20:19.878Z,100237.56
2023-05-09T13:22:46.862Z,100234.41
2023-05-09T13:25:13.853Z,100223.44
2023-05-09T13:27:40.649Z,100220.00
2023-05-09T13:30:08.493Z,100218.78
2023-05-09T13:32:36.597Z,100209.75
2023-05-09T13:35:06.759Z,100210.13
2023-05-09T13:37:36.394Z,100202.00
2023-05-09T13:40:04.376Z,100191.69
2023-05-09T13:42:31.235Z,100193.66
2023-05-09T13:44:58.021Z,100190.34
2023-05-09T13:47:24.999Z,100190.84
2023-05-09T13:49:52.286Z,100192.81
2023-05-09T13:52:19.435Z,100185.88
2023-05-09T13:54:46.533Z,100180.28
2023-05-09T13:57:13.400Z,100179.25
2023-05-09T13:59:43.506Z,100175.25
2023-05-09T14:02:13.157Z,100168.53
2023-05-09T14:04:39.994Z,100169.94
2023-05-09T14:07:09.425Z,100171.34
2023-05-09T14:09:39.987Z,100161.81
2023-05-09T14:12:07.053Z,100160.31
2023-05-09T14:14:34.037Z,100154.91
2023-05-09T14:17:01.410Z,100152.19
2023-05-09T14:19:30.323Z,100146.34
2023-05-09T14:21:59.598Z,100144.81
2023-05-09T14:24:26.400Z,100145.75
2023-05-09T14:26:53.156Z,100136.50
2023-05-09T14:29:19.974Z,100129.44
2023-05-09T14:31:46.643Z,100134.66
2023-05-09T14:34:13.290Z,100131.94
2023-05-09T14:36:40.181Z,100130.31
2023-05-09T14:39:07.492Z,100127.38
2023-05-09T14:41:34.196Z,100121.19
2023-05-09T14:44:00.968Z,100114.16
2023-05-09T14:46:27.955Z,100112.38
2023-05-09T14:48:54.752Z,100109.41
2023-05-09T14:51:21.834Z,100097.63
2023-05-09T14:53:48.570Z,100090.59
2023-05-09T14:56:15.513Z,100100.84
2023-05-09T14:58:42.491Z,100086.50
2023-05-09T15:01:09.258Z,100084.94
2023-05-09T15:03:36.159Z,100081.31
2023-05-09T15:06:04.312Z,100085.41
2023-05-09T15:08:31.387Z,100069.59
2023-05-09T15:10:58.106Z,100067.66
2023-05-09T15:13:32.606Z,100064.47
2023-05-09T15:16:02.690Z,100054.69
2023-05-09T15:18:49.860Z,100050.81
2023-05-09T15:21:23.770Z,100051.09
2023-05-09T15:23:53.845Z,100052.34
2023-05-09T15:26:21.383Z,100048.38
2023-05-09T15:28:48.965Z,100045.19
2023-05-09T15:31:17.616Z,100046.09
2023-05-09T15:36:39.514Z,100027.66
2023-05-09T15:39:12.263Z,100024.44
2023-05-09T15:41:39.764Z,100035.22
2023-05-09T15:44:10.111Z,100033.66
2023-05-09T15:46:43.142Z,100026.47
2023-05-09T15:49:11.592Z,100023.53
2023-05-09T15:51:42.449Z,100023.97
2023-05-09T15:54:09.805Z,100020.09
2023-05-09T15:56:42.567Z,100022.75
2023-05-09T15:59:17.381Z,100024.00
2023-05-09T16:01:44.513Z,100019.13
2023-05-09T16:04:33.301Z,100022.78
2023-05-09T16:07:09.209Z,100016.53
2023-05-09T16:09:39.837Z,100013.56
2023-05-09T16:12:12.988Z,100017.44
2023-05-09T16:14:47.654Z,100006.97
2023-05-09T16:17:16.639Z,100006.75
2023-05-09T16:19:53.569Z,100004.94
2023-05-09T16:22:28.184Z,99994.38
2023-05-09T16:24:58.336Z,99995.38
2023-05-09T16:27:32.407Z,99990.63
2023-05-09T16:30:02.232Z,99997.44
2023-05-09T16:32:32.736Z,99992.69
2023-05-09T16:35:18.449Z,99992.31
2023-05-09T16:37:48.615Z,99987.22
2023-05-09T16:40:17.960Z,99985.88
2023-05-09T16:42:47.601Z,99986.53
2023-05-09T16:45:19.078Z,99978.34
2023-05-09T16:47:49.323Z,99978.47
2023-05-09T16:50:19.751Z,99981.06
2023-05-09T16:53:02.141Z,99976.41
2023-05-09T16:55:34.577Z,99971.50
2023-05-09T16:58:09.756Z,99971.31
2023-05-09T17:00:43.169Z,99967.91
2023-05-09T17:03:19.315Z,99972.66
2023-05-09T17:06:17.960Z,99968.09
2023-05-09T17:08:56.149Z,99975.00
2023-05-09T17:11:30.892Z,99966.50
2023-05-09T17:14:20.052Z,99968.09
2023-05-09T17:17:00.999Z,99976.25
2023-05-09T17:19:31.980Z,99971.84
2023-05-09T17:22:09.220Z,99975.56
2023-05-09T17:24:47.095Z,99984.31
2023-05-09T17:27:37.127Z,99977.69
2023-05-09T17:30:16.107Z,99980.50
2023-05-09T17:32:49.148Z,99981.84
2023-05-09T17:38:11.002Z,99981.31
2023-05-09T17:40:54.012Z,99977.22
2023-05-09T17:43:25.051Z,99977.75
2023-05-09T17:45:55.325Z,99983.06
2023-05-09T17:48:23.486Z,99983.75
2023-05-09T17:50:51.291Z,99991.63
2023-05-09T17:53:18.898Z,99993.13
2023-05-09T17:55:46.027Z,99999.88
2023-05-09T17:58:15.061Z,100004.75
2023-05-09T18:00:42.252Z,100007.03
2023-05-09T18:03:09.346Z,100019.25
2023-05-09T18:05:36.245Z,100022.00
2023-05-09T18:08:06.623Z,100027.09
2023-05-09T18:10:33.336Z,100034.25
2023-05-09T18:13:12.420Z,100041.75
2023-05-09T18:15:39.319Z,100037.38
2023-05-09T18:18:09.868Z,100059.44
2023-05-09T18:20:38.214Z,100045.25
2023-05-09T18:23:10.819Z,100044.16
2023-05-09T18:25:38.732Z,100043.53
2023-05-09T18:28:05.571Z,100029.69
2023-05-09T18:30:32.568Z,100037.06
2023-05-09T18:33:01.554Z,100037.00
2023-05-09T18:35:28.610Z,100036.13
2023-05-09T18:37:58.459Z,100034.25
2023-05-09T18:40:37.198Z,100023.91
2023-05-09T18:45:57.204Z,100022.50
2023-05-09T18:48:29.258Z,100022.97
2023-05-09T18:50:56.462Z,100019.44
2023-05-09T18:53:32.774Z,100017.03
2023-05-09T18:56:26.602Z,100017.22
2023-05-09T18:58:54.040Z,100012.59
2023-05-09T19:01:24.556Z,100013.19
2023-05-09T19:03:54.594Z,100009.22
2023-05-09T19:06:22.265Z,100014.81
2023-05-09T19:08:54.761Z,100011.94
2023-05-09T19:11:22.401Z,100025.63
2023-05-09T19:13:49.682Z,100014.81
2023-05-09T19:16:36.514Z,100017.66
2023-05-09T19:19:05.927Z,100020.88
2023-05-09T19:21:34.304Z,100025.00
2023-05-09T19:24:23.545Z,100025.00
2023-05-09T19:26:59.839Z,100026.13
2023-05-09T19:29:26.779Z,100033.81
2023-05-09T19:32:04.338Z,100026.47
2023-05-09T19:34:31.460Z,100019.97
2023-05-09T19:36:58.242Z,100022.03
2023-05-09T19:39:25.349Z,100024.09
2023-05-09T19:41:52.391Z,100025.19
2023-05-09T19:44:19.203Z,100023.94
2023-05-09T19:46:46.533Z,100025.97
2023-05-09T19:49:30.454Z,100021.47
2023-05-09T19:51:57.487Z,100027.50
2023-05-09T19:57:32.449Z,100018.41
2023-05-09T19:59:59.472Z,100025.56
2023-05-09T20:02:29.382Z,100035.16
2023-05-09T20:05:02.152Z,100030.72
2023-05-09T20:07:31.211Z,100030.72
2023-05-09T20:09:58.025Z,100032.28
2023-05-09T20:12:43.490Z,100026.09
2023-05-09T20:15:15.481Z,100037.97
2023-05-09T20:17:47.211Z,100034.78
2023-05-09T20:20:14.242Z,100033.34
2023-05-09T20:22:41.244Z,100033.69
2023-05-09T20:25:08.312Z,100036.00
2023-05-09T20:27:37.659Z,100036.19
2023-05-09T20:30:05.184Z,100028.56
2023-05-09T20:32:45.140Z,100024.69
2023-05-09T20:35:12.297Z,100029.44
2023-05-09T20:37:42.154Z,100023.41
2023-05-09T20:40:14.685Z,100026.78
2023-05-09T20:42:56.476Z,100023.72
2023-05-09T20:45:34.235Z,100021.94
2023-05-09T20:48:10.723Z,100022.72
2023-05-09T20:50:37.700Z,100027.72
2023-05-09T20:53:08.240Z,100025.81
2023-05-09T20:55:38.063Z,100023.22
2023-05-09T20:58:07.616Z,100026.66
2023-05-09T21:00:35.909Z,100021.25
2023-05-09T21:03:03.061Z,100030.97
2023-05-09T21:05:30.052Z,100020.47
2023-05-09T21:07:57.223Z,100026.66
2023-05-09T21:10:24.292Z,100016.47
2023-05-09T21:12:51.227Z,100021.38
2023-05-09T21:15:18.248Z,100017.22
2023-05-09T21:17:45.405Z,100016.34
2023-05-09T21:20:14.980Z,100024.53
2023-05-09T21:22:45.481Z,100017.16
2023-05-09T21:25:12.716Z,100018.78
2023-05-09T21:27:39.752Z,100012.09
2023-05-09T21:30:07.830Z,100006.78
2023-05-09T21:32:35.258Z,100018.50
2023-05-09T21:35:04.203Z,100010.69
2023-05-09T21:37:38.489Z,100020.44
2023-05-09T21:40:06.599Z,100012.75
2023-05-09T21:42:34.353Z,100008.06
2023-05-09T21:45:01.632Z,100011.84
2023-05-09T21:47:28.938Z,100009.53
2023-05-09T21:49:57.330Z,100011.06
2023-05-09T21:52:24.346Z,100018.59
2023-05-09T21:54:51.411Z,100018.31
2023-05-09T21:57:18.390Z,100015.44
2023-05-09T21:59:45.327Z,100016.84
2023-05-09T22:02:12.340Z,100013.69
2023-05-09T22:04:40.252Z,100024.50
2023-05-09T22:07:07.239Z,100023.50
2023-05-09T22:09:34.088Z,100024.00
2023-05-09T22:12:00.849Z,100025.19
2023-05-09T22:14:27.762Z,100026.13
2023-05-09T22:16:54.469Z,100025.22
2023-05-09T22:19:21.363Z,100029.91
2023-05-09T22:21:48.990Z,100027.34
2023-05-09T22:24:16.190Z,100031.16
2023-05-09T22:26:43.135Z,100034.13
2023-05-09T22:29:10.154Z,100038.81
2023-05-09T22:31:37.006Z,100040.94
2023-05-09T22:34:03.950Z,100037.72
2023-05-09T22:36:31.959Z,100041.75
2023-05-09T22:38:58.633Z,100042.34
2023-05-09T22:41:25.326Z,100043.75
2023-05-09T22:43:52.026Z,100048.16
2023-05-09T22:46:19.134Z,100048.94
2023-05-09T22:48:48.273Z,100045.16
2023-05-09T22:51:15.192Z,100045.16
2023-05-09T22:53:41.951Z,100052.44
2023-05-09T22:56:09.647Z,100051.84
2023-05-09T22:58:36.672Z,100049.94
2023-05-09T23:01:03.552Z,100057.75
2023-05-09T23:03:30.659Z,100052.34
2023-05-09T23:05:57.417Z,100059.16
2023-05-09T23:08:24.217Z,100062.16
2023-05-09T23:10:50.967Z,100072.16
2023-05-09T23:13:17.843Z,100063.56
2023-05-09T23:15:44.672Z,100068.16
2023-05-09T23:18:12.233Z,100067.84
2023-05-09T23:20:39.110Z,100065.66
2023-05-09T23:23:06.102Z,100068.34
2023-05-09T23:25:32.924Z,100070.75
2023-05-09T23:27:59.754Z,100073.16
2023-05-09T23:30:26.719Z,100066.44
2023-05-09T23:32:53.830Z,100071.84
2023-05-09T23:35:21.262Z,100070.56
2023-05-09T23:37:48.534Z,100075.97
2023-05-09T23:40:15.592Z,100072.53
2023-05-09T23:42:42.816Z,100069.66
2023-05-09T23:45:10.391Z,100076.34
2023-05-09T23:47:37.239Z,100077.16
2023-05-09T23:50:04.329Z,100077.16
2023-05-09T23:52:31.657Z,100079.34
2023-05-09T23:54:58.541Z,100077.25
2023-05-09T23:57:27.706Z,100082.72
2023-05-09T23:59:54.424Z,100078.63
